KSCX

Scott Municipal Airport

Oneida, Tennessee, USA
METAR KSCX 151435Z AUTO 19004KT 10SM OVC100 23/19 A3014 RMK A01
Observed Flight Rules
Aug-15 @ 14:35 UTC (25 minutes ago) Visual Flight Rules
Wind Visibility Clouds
190° at 4 knots 10 miles
  • Overcast at 10,000' AGL
Temperatures Readings
Current 23°C / 73°F
Dewpoint 19°C / 66°F
Humidity 78%
Altimeter 30.14" Hg
Pressure 1021 hPa
Elevation 471
METAR KSCX 151435Z AUTO 19004KT 10SM OVC100 23/19 A3014 RMK A01
Observed Flight Rules
Aug-15 @ 14:35 UTC
(25 minutes ago)
VFR
Wind Visibility
190° at 4 knots 10 miles
Clouds
  • Overcast at 10,000' AGL
Temperature Dewpoint
23°C / 73°F 19°C / 66°F
Humidity Altimeter Pressure
78% 30.14" Hg 1021 hPa